createdAt,value
2018-02-24T00:00:01.062Z,62.47
2018-02-24T00:02:30.256Z,62.42
2018-02-24T00:04:59.623Z,62.74
2018-02-24T00:07:28.949Z,62.31
2018-02-24T00:09:57.884Z,62.13
2018-02-24T00:12:26.935Z,62.75
2018-02-24T00:14:55.850Z,63.01
2018-02-24T00:17:24.933Z,62.85
2018-02-24T00:19:54.156Z,63.66
2018-02-24T00:22:23.228Z,63.66
2018-02-24T00:24:53.047Z,63.01
2018-02-24T00:27:21.970Z,62.88
2018-02-24T00:29:51.112Z,62.81
2018-02-24T00:32:19.934Z,63.70
2018-02-24T00:34:48.888Z,63.31
2018-02-24T00:37:17.956Z,62.87
2018-02-24T00:39:46.932Z,62.94
2018-02-24T00:42:16.282Z,63.06
2018-02-24T00:44:45.315Z,63.61
2018-02-24T00:47:14.443Z,64.25
2018-02-24T00:49:43.524Z,63.69
2018-02-24T00:52:12.970Z,63.63
2018-02-24T00:54:41.996Z,63.81
2018-02-24T00:57:11.185Z,64.12
2018-02-24T00:59:40.468Z,64.16
2018-02-24T01:02:09.474Z,64.12
2018-02-24T01:04:44.406Z,64.08
2018-02-24T01:07:13.460Z,64.78
2018-02-24T01:09:42.619Z,64.85
2018-02-24T01:12:11.825Z,65.08
2018-02-24T01:14:41.011Z,64.64
2018-02-24T01:17:10.177Z,64.72
2018-02-24T01:19:39.799Z,64.37
2018-02-24T01:22:08.929Z,64.99
2018-02-24T01:24:38.475Z,65.44
2018-02-24T01:27:07.849Z,65.03
2018-02-24T01:29:37.305Z,64.73
2018-02-24T01:32:06.609Z,64.40
2018-02-24T01:34:37.404Z,64.80
2018-02-24T01:37:07.331Z,65.38
2018-02-24T01:39:36.598Z,64.91
2018-02-24T01:42:06.005Z,65.48
2018-02-24T01:44:36.613Z,65.44
2018-02-24T01:47:07.749Z,65.17
2018-02-24T01:49:39.051Z,65.24
2018-02-24T01:52:09.396Z,65.12
2018-02-24T01:54:41.946Z,65.18
2018-02-24T01:57:12.462Z,65.33
2018-02-24T01:59:43.256Z,66.06
2018-02-24T02:02:14.641Z,65.59
2018-02-24T02:04:46.743Z,65.67
2018-02-24T02:07:16.132Z,65.91
2018-02-24T02:09:48.268Z,66.19
2018-02-24T02:12:18.715Z,66.28
2018-02-24T02:14:49.301Z,66.09
2018-02-24T02:17:20.875Z,66.27
2018-02-24T02:19:50.740Z,66.59
2018-02-24T02:22:22.154Z,66.89
2018-02-24T02:24:52.038Z,67.11
2018-02-24T02:27:22.101Z,66.90
2018-02-24T02:29:55.255Z,66.85
2018-02-24T02:32:25.149Z,66.65
2018-02-24T02:34:55.083Z,66.12
2018-02-24T02:37:26.421Z,66.34
2018-02-24T02:39:57.284Z,65.91
2018-02-24T02:42:27.789Z,65.73
2018-02-24T02:44:58.866Z,66.64
2018-02-24T02:47:29.752Z,66.50
2018-02-24T02:50:00.283Z,65.90
2018-02-24T02:52:31.864Z,66.49
2018-02-24T02:55:04.671Z,67.43
2018-02-24T02:57:34.434Z,68.99
2018-02-24T03:00:03.984Z,67.90
2018-02-24T03:02:35.212Z,67.86
2018-02-24T03:05:07.592Z,68.98
2018-02-24T03:07:37.205Z,68.81
2018-02-24T03:10:07.159Z,68.52
2018-02-24T03:12:36.752Z,67.96
2018-02-24T03:15:08.219Z,69.10
2018-02-24T03:17:39.508Z,69.03
2018-02-24T03:20:09.668Z,69.26
2018-02-24T03:22:39.839Z,69.25
2018-02-24T03:25:11.970Z,68.57
2018-02-24T03:27:42.485Z,69.61
2018-02-24T03:30:13.703Z,68.55
2018-02-24T03:32:43.650Z,68.67
2018-02-24T03:35:15.073Z,69.50
2018-02-24T03:37:46.042Z,70.47
2018-02-24T03:40:17.123Z,70.24
2018-02-24T03:42:46.511Z,70.05
2018-02-24T03:45:18.124Z,70.31
2018-02-24T03:47:50.007Z,71.40
2018-02-24T03:50:19.171Z,70.87
2018-02-24T03:52:49.444Z,70.59
2018-02-24T03:55:20.412Z,70.23
2018-02-24T03:57:50.991Z,69.96
2018-02-24T04:00:22.224Z,69.56
2018-02-24T04:02:53.138Z,70.06
2018-02-24T04:05:25.152Z,70.79
2018-02-24T04:07:56.452Z,71.63
2018-02-24T04:10:27.765Z,71.85
2018-02-24T04:12:57.888Z,72.34
2018-02-24T04:15:28.740Z,71.83
2018-02-24T04:18:00.203Z,71.84
2018-02-24T04:20:30.974Z,72.07
2018-02-24T04:23:02.019Z,72.30
2018-02-24T04:25:32.624Z,72.51
2018-02-24T04:28:03.093Z,71.90
2018-02-24T04:30:34.000Z,71.88
2018-02-24T04:33:06.731Z,71.90
2018-02-24T04:35:36.415Z,71.35
2018-02-24T04:38:06.697Z,71.84
2018-02-24T04:40:36.615Z,71.86
2018-02-24T04:43:07.592Z,71.55
2018-02-24T04:45:37.544Z,71.05
2018-02-24T04:48:08.587Z,70.92
2018-02-24T04:50:39.604Z,70.85
2018-02-24T04:53:11.633Z,71.13
2018-02-24T04:55:41.754Z,71.17
2018-02-24T04:58:11.554Z,70.66
2018-02-24T05:00:42.196Z,70.92
2018-02-24T05:03:13.294Z,70.74
2018-02-24T05:05:44.296Z,70.85
2018-02-24T05:08:15.301Z,71.05
2018-02-24T05:10:46.447Z,71.16
2018-02-24T05:13:17.259Z,71.27
2018-02-24T05:15:48.716Z,71.40
2018-02-24T05:18:19.114Z,71.31
2018-02-24T05:20:49.997Z,71.64
2018-02-24T05:23:21.592Z,71.73
2018-02-24T05:25:52.317Z,71.75
2018-02-24T05:28:22.943Z,71.34
2018-02-24T05:30:53.546Z,71.92
2018-02-24T05:33:24.191Z,72.24
2018-02-24T05:35:54.759Z,72.91
2018-02-24T05:38:25.533Z,73.09
2018-02-24T05:40:57.347Z,73.22
2018-02-24T05:43:27.605Z,73.32
2018-02-24T05:45:58.440Z,73.16
2018-02-24T05:48:28.863Z,73.16
2018-02-24T05:50:58.711Z,73.22
2018-02-24T05:53:29.981Z,73.47
2018-02-24T05:56:00.768Z,73.41
2018-02-24T05:58:31.714Z,73.42
2018-02-24T06:01:02.544Z,73.63
2018-02-24T06:03:33.357Z,73.83
2018-02-24T06:06:04.252Z,74.00
2018-02-24T06:08:35.781Z,74.06
2018-02-24T06:11:05.813Z,74.14
2018-02-24T06:13:36.405Z,74.20
2018-02-24T06:16:08.240Z,74.21
2018-02-24T06:18:38.811Z,74.39
2018-02-24T06:21:09.632Z,74.55
2018-02-24T06:23:39.979Z,74.52
2018-02-24T06:26:10.858Z,74.84
2018-02-24T06:28:41.831Z,74.73
2018-02-24T06:31:12.935Z,74.43
2018-02-24T06:33:44.253Z,74.62
2018-02-24T06:36:15.111Z,74.64
2018-02-24T06:38:46.620Z,74.45
2018-02-24T06:41:17.079Z,74.58
2018-02-24T06:43:49.394Z,75.03
2018-02-24T06:46:19.375Z,75.00
2018-02-24T06:48:51.070Z,74.61
2018-02-24T06:51:21.819Z,74.65
2018-02-24T06:53:53.446Z,74.97
2018-02-24T06:56:24.908Z,74.75
2018-02-24T06:58:55.646Z,74.84
2018-02-24T07:01:25.319Z,74.83
2018-02-24T07:03:56.380Z,74.75
2018-02-24T07:06:31.775Z,75.28
2018-02-24T07:09:01.267Z,75.09
2018-02-24T07:11:30.536Z,74.74
2018-02-24T07:13:59.951Z,74.60
2018-02-24T07:16:31.280Z,74.56
2018-02-24T07:19:05.558Z,74.06
2018-02-24T07:21:35.058Z,73.53
2018-02-24T07:24:04.432Z,73.67
2018-02-24T07:26:34.495Z,73.16
2018-02-24T07:29:05.084Z,70.48
2018-02-24T07:31:35.135Z,69.59
2018-02-24T07:34:05.433Z,69.80
2018-02-24T07:36:37.252Z,68.78
2018-02-24T07:39:07.757Z,67.63
2018-02-24T07:41:41.195Z,66.29
2018-02-24T07:44:11.840Z,66.08
2018-02-24T07:46:42.477Z,66.14
2018-02-24T07:49:13.182Z,66.15
2018-02-24T07:51:43.832Z,66.64
2018-02-24T07:54:14.752Z,66.75
2018-02-24T07:56:45.481Z,66.99
2018-02-24T07:59:17.333Z,66.97
2018-02-24T08:01:47.741Z,68.67
2018-02-24T08:04:17.399Z,70.09
2018-02-24T08:06:48.470Z,71.50
2018-02-24T08:09:20.398Z,72.08
2018-02-24T08:11:51.066Z,72.40
2018-02-24T08:14:21.544Z,71.42
2018-02-24T08:16:52.156Z,70.67
2018-02-24T08:19:23.551Z,69.58
2018-02-24T08:21:53.958Z,68.38
2018-02-24T08:24:24.895Z,69.08
2018-02-24T08:26:56.007Z,67.47
2018-02-24T08:29:35.695Z,67.38
2018-02-24T08:32:07.580Z,66.77
2018-02-24T08:34:42.266Z,66.69
2018-02-24T08:37:17.819Z,66.77
2018-02-24T08:39:53.707Z,66.00
2018-02-24T08:42:30.611Z,65.11
2018-02-24T08:45:04.886Z,62.71
2018-02-24T08:47:38.880Z,62.04
2018-02-24T08:50:07.949Z,61.86
2018-02-24T08:52:36.884Z,59.08
2018-02-24T08:55:05.748Z,58.09
2018-02-24T08:57:35.027Z,56.70
2018-02-24T09:00:04.261Z,55.29
2018-02-24T09:02:33.125Z,54.61
2018-02-24T09:05:02.211Z,54.32
2018-02-24T09:07:31.133Z,54.81
2018-02-24T09:10:01.328Z,53.28
2018-02-24T09:12:30.549Z,54.02
2018-02-24T09:14:59.556Z,64.52
2018-02-24T09:17:28.915Z,53.03
2018-02-24T09:19:58.494Z,53.11
2018-02-24T09:22:27.723Z,53.07
2018-02-24T09:24:57.091Z,53.36
2018-02-24T09:27:26.392Z,53.66
2018-02-24T09:29:55.835Z,53.39
2018-02-24T09:32:25.316Z,53.16
2018-02-24T09:34:54.738Z,52.65
2018-02-24T09:37:24.217Z,53.28
2018-02-24T09:39:53.880Z,53.70
2018-02-24T09:42:23.580Z,53.06
2018-02-24T09:44:54.339Z,53.13
2018-02-24T09:47:24.888Z,51.98
2018-02-24T09:49:56.605Z,50.83
2018-02-24T09:52:27.088Z,50.87
2018-02-24T09:54:58.976Z,50.59
2018-02-24T09:57:29.461Z,51.19
2018-02-24T09:59:59.518Z,53.59
2018-02-24T10:02:30.065Z,54.55
2018-02-24T10:05:02.161Z,55.88
2018-02-24T10:07:33.879Z,56.29
2018-02-24T10:10:03.880Z,55.29
2018-02-24T10:12:34.459Z,54.82
2018-02-24T10:15:05.289Z,53.25
2018-02-24T10:17:36.048Z,52.41
2018-02-24T10:20:08.663Z,51.09
2018-02-24T10:22:38.727Z,50.72
2018-02-24T10:25:09.747Z,51.00
2018-02-24T10:27:40.552Z,50.72
2018-02-24T10:30:11.156Z,50.21
2018-02-24T10:32:42.629Z,50.47
2018-02-24T10:35:13.370Z,50.52
2018-02-24T10:37:43.734Z,51.54
2018-02-24T10:40:15.314Z,52.73
2018-02-24T10:42:46.068Z,53.66
2018-02-24T10:45:15.984Z,55.11
2018-02-24T10:47:46.698Z,56.46
2018-02-24T10:50:17.441Z,57.44
2018-02-24T10:52:48.243Z,57.99
2018-02-24T10:55:19.301Z,57.39
2018-02-24T10:57:49.957Z,57.32
2018-02-24T11:00:20.469Z,57.17
2018-02-24T11:02:51.304Z,60.51
2018-02-24T11:05:22.545Z,64.87
2018-02-24T11:07:53.052Z,64.55
2018-02-24T11:10:25.678Z,63.53
2018-02-24T11:12:56.753Z,63.68
2018-02-24T11:15:27.440Z,67.19
2018-02-24T11:17:59.352Z,68.08
2018-02-24T11:20:29.331Z,67.50
2018-02-24T11:22:59.420Z,66.71
2018-02-24T11:25:29.560Z,63.09
2018-02-24T11:28:04.010Z,61.91
2018-02-24T11:30:33.089Z,59.06
2018-02-24T11:33:02.523Z,58.29
2018-02-24T11:35:32.780Z,57.20
2018-02-24T11:38:04.159Z,56.60
2018-02-24T11:40:36.219Z,55.00
2018-02-24T11:43:05.772Z,54.21
2018-02-24T11:45:36.518Z,56.21
2018-02-24T11:48:08.153Z,57.77
2018-02-24T11:50:38.735Z,56.71
2018-02-24T11:53:09.752Z,56.19
2018-02-24T11:55:41.714Z,55.87
2018-02-24T11:58:11.420Z,55.44
2018-02-24T12:00:42.998Z,54.32
2018-02-24T12:03:12.609Z,52.92
2018-02-24T12:05:43.087Z,52.98
2018-02-24T12:08:12.884Z,52.81
2018-02-24T12:10:43.963Z,52.48
2018-02-24T12:13:15.007Z,51.19
2018-02-24T12:15:46.079Z,50.37
2018-02-24T12:18:17.440Z,49.48
2018-02-24T12:20:48.249Z,49.26
2018-02-24T12:23:18.543Z,49.33
2018-02-24T12:25:49.518Z,49.96
2018-02-24T12:28:20.051Z,50.10
2018-02-24T12:30:51.039Z,50.44
2018-02-24T12:33:21.172Z,51.29
2018-02-24T12:35:53.762Z,50.57
2018-02-24T12:38:23.391Z,50.74
2018-02-24T12:40:54.524Z,51.44
2018-02-24T12:43:26.766Z,50.95
2018-02-24T12:45:58.945Z,51.32
2018-02-24T12:48:28.458Z,51.97
2018-02-24T12:50:58.163Z,52.06
2018-02-24T12:53:28.668Z,52.07
2018-02-24T12:56:00.972Z,50.92
2018-02-24T12:58:31.504Z,51.89
2018-02-24T13:01:01.200Z,51.06
2018-02-24T13:03:32.188Z,52.55
2018-02-24T13:06:02.411Z,53.18
2018-02-24T13:08:33.882Z,53.70
2018-02-24T13:11:05.751Z,54.79
2018-02-24T13:13:35.544Z,56.48
2018-02-24T13:16:07.137Z,56.13
2018-02-24T13:18:36.163Z,56.07
2018-02-24T13:21:06.504Z,54.88
2018-02-24T13:23:37.292Z,55.04
2018-02-24T13:26:07.562Z,57.05
2018-02-24T13:28:38.337Z,53.93
2018-02-24T13:31:07.451Z,53.56
2018-02-24T13:33:36.955Z,52.60
2018-02-24T13:36:06.464Z,52.55
2018-02-24T13:38:35.434Z,52.99
2018-02-24T13:41:04.555Z,57.02
2018-02-24T13:43:34.108Z,55.34
2018-02-24T13:46:02.984Z,55.84
2018-02-24T13:48:32.226Z,55.74
2018-02-24T13:51:01.815Z,54.76
2018-02-24T13:53:30.856Z,53.82
2018-02-24T13:55:59.787Z,53.78
2018-02-24T13:58:28.966Z,53.31
2018-02-24T14:00:57.815Z,53.54
2018-02-24T14:03:26.834Z,54.41
2018-02-24T14:05:55.998Z,53.70
2018-02-24T14:08:25.151Z,54.06
2018-02-24T14:10:53.953Z,54.21
2018-02-24T14:13:23.020Z,54.12
2018-02-24T14:15:52.172Z,54.23
2018-02-24T14:18:23.038Z,53.90
2018-02-24T14:20:51.980Z,54.01
2018-02-24T14:23:20.957Z,54.79
2018-02-24T14:25:50.139Z,53.93
2018-02-24T14:28:19.097Z,53.71
2018-02-24T14:30:47.858Z,53.46
2018-02-24T14:33:17.463Z,53.06
2018-02-24T14:35:47.584Z,52.09
2018-02-24T14:38:17.056Z,51.94
2018-02-24T14:40:46.684Z,47.96
2018-02-24T14:43:15.828Z,48.51
2018-02-24T14:45:44.969Z,48.74
2018-02-24T14:48:13.971Z,46.30
2018-02-24T14:50:42.811Z,46.42
2018-02-24T14:53:12.480Z,46.30
2018-02-24T14:55:41.665Z,46.42
2018-02-24T14:58:10.878Z,47.05
2018-02-24T15:00:39.771Z,47.32
2018-02-24T15:03:08.872Z,48.57
2018-02-24T15:05:38.456Z,49.08
2018-02-24T15:08:07.312Z,49.96
2018-02-24T15:10:36.200Z,50.15
2018-02-24T15:13:05.531Z,50.58
2018-02-24T15:15:34.702Z,50.66
2018-02-24T15:18:05.363Z,50.31
2018-02-24T15:20:35.024Z,49.29
2018-02-24T15:23:06.200Z,48.83
2018-02-24T15:25:39.794Z,48.14
2018-02-24T15:28:08.872Z,47.31
2018-02-24T15:30:38.332Z,46.43
2018-02-24T15:33:07.051Z,46.61
2018-02-24T15:35:35.937Z,45.91
2018-02-24T15:38:04.653Z,45.96
2018-02-24T15:40:33.857Z,45.72
2018-02-24T15:43:02.954Z,45.92
2018-02-24T15:45:32.136Z,46.17
2018-02-24T15:48:00.823Z,46.14
2018-02-24T15:50:35.527Z,46.32
2018-02-24T15:53:04.489Z,46.14
2018-02-24T15:55:35.149Z,46.51
2018-02-24T15:58:04.871Z,46.04
2018-02-24T16:00:33.905Z,44.90
2018-02-24T16:03:09.711Z,44.78
2018-02-24T16:05:43.859Z,44.83
2018-02-24T16:08:16.755Z,45.16
2018-02-24T16:10:48.245Z,46.46
2018-02-24T16:13:22.124Z,45.36
2018-02-24T16:16:00.357Z,45.21
2018-02-24T16:18:35.928Z,45.74
2018-02-24T16:21:11.299Z,44.84
2018-02-24T16:23:48.780Z,45.98
2018-02-24T16:26:24.307Z,44.63
2018-02-24T16:28:57.335Z,45.20
2018-02-24T16:31:30.322Z,45.06
2018-02-24T16:34:03.707Z,45.40
2018-02-24T16:36:36.483Z,45.72
2018-02-24T16:39:09.230Z,45.13
2018-02-24T16:41:38.945Z,45.44
2018-02-24T16:44:08.914Z,45.25
2018-02-24T16:46:38.437Z,46.47
2018-02-24T16:49:07.391Z,46.76
2018-02-24T16:51:37.010Z,46.84
2018-02-24T16:54:05.970Z,47.42
2018-02-24T16:56:35.203Z,47.49
2018-02-24T16:59:04.281Z,47.85
2018-02-24T17:01:34.000Z,47.87
2018-02-24T17:04:02.867Z,48.34
2018-02-24T17:06:31.688Z,48.38
2018-02-24T17:09:00.966Z,48.51
2018-02-24T17:11:29.810Z,48.45
2018-02-24T17:13:58.673Z,48.08
2018-02-24T17:16:29.370Z,48.02
2018-02-24T17:18:59.229Z,47.81
2018-02-24T17:21:28.167Z,47.99
2018-02-24T17:23:57.156Z,47.50
2018-02-24T17:26:25.994Z,47.70
2018-02-24T17:28:54.884Z,47.57
2018-02-24T17:31:24.928Z,47.48
2018-02-24T17:33:54.889Z,47.61
2018-02-24T17:36:24.412Z,47.36
2018-02-24T17:38:53.538Z,47.88
2018-02-24T17:41:22.381Z,47.36
2018-02-24T17:43:52.044Z,47.46
2018-02-24T17:46:21.144Z,47.65
2018-02-24T17:48:50.126Z,47.68
2018-02-24T17:51:19.115Z,48.03
2018-02-24T17:53:48.749Z,47.94
2018-02-24T17:56:17.945Z,48.01
2018-02-24T17:58:47.260Z,47.91
2018-02-24T18:01:15.852Z,47.79
2018-02-24T18:03:44.867Z,47.82
2018-02-24T18:06:15.942Z,47.67
2018-02-24T18:08:45.026Z,47.55
2018-02-24T18:11:13.831Z,47.55
2018-02-24T18:13:43.309Z,47.54
2018-02-24T18:16:12.411Z,47.36
2018-02-24T18:18:41.232Z,47.62
2018-02-24T18:21:11.772Z,47.41
2018-02-24T18:23:40.854Z,47.71
2018-02-24T18:26:10.793Z,47.44
2018-02-24T18:28:39.968Z,47.68
2018-02-24T18:31:10.113Z,47.50
2018-02-24T18:33:39.398Z,47.40
2018-02-24T18:36:08.696Z,47.72
2018-02-24T18:38:38.242Z,47.56
2018-02-24T18:41:07.234Z,47.93
2018-02-24T18:43:36.444Z,47.87
2018-02-24T18:46:05.340Z,48.12
2018-02-24T18:48:34.232Z,48.14
2018-02-24T18:51:03.287Z,48.49
2018-02-24T18:53:32.002Z,48.22
2018-02-24T18:56:01.224Z,48.05
2018-02-24T18:58:30.681Z,48.26
2018-02-24T19:00:59.576Z,49.33
2018-02-24T19:03:28.705Z,49.17
2018-02-24T19:05:58.419Z,49.20
2018-02-24T19:08:27.530Z,49.18
2018-02-24T19:10:56.543Z,49.10
2018-02-24T19:13:26.207Z,49.33
2018-02-24T19:15:55.470Z,49.57
2018-02-24T19:18:24.652Z,49.29
2018-02-24T19:20:54.046Z,49.80
2018-02-24T19:23:26.784Z,49.51
2018-02-24T19:25:55.939Z,49.64
2018-02-24T19:28:32.716Z,49.74
2018-02-24T19:31:02.168Z,49.93
2018-02-24T19:33:31.298Z,49.97
2018-02-24T19:36:00.682Z,50.08
2018-02-24T19:38:31.290Z,50.10
2018-02-24T19:41:00.783Z,50.36
2018-02-24T19:43:29.960Z,50.59
2018-02-24T19:45:59.342Z,51.50
2018-02-24T19:48:28.738Z,51.41
2018-02-24T19:50:58.352Z,51.41
2018-02-24T19:53:32.164Z,51.79
2018-02-24T19:56:01.866Z,51.71
2018-02-24T19:58:31.143Z,52.25
2018-02-24T20:01:03.147Z,52.57
2018-02-24T20:03:33.605Z,52.59
2018-02-24T20:06:05.644Z,53.24
2018-02-24T20:08:34.836Z,53.14
2018-02-24T20:11:04.504Z,53.00
2018-02-24T20:13:35.931Z,52.78
2018-02-24T20:16:04.863Z,52.61
2018-02-24T20:18:35.340Z,52.20
2018-02-24T20:21:06.155Z,52.27
2018-02-24T20:23:38.514Z,52.24
2018-02-24T20:26:09.222Z,52.10
2018-02-24T20:28:39.074Z,52.74
2018-02-24T20:31:11.009Z,52.72
2018-02-24T20:33:41.572Z,52.66
2018-02-24T20:36:12.391Z,52.52
2018-02-24T20:38:43.216Z,52.50
2018-02-24T20:41:14.698Z,52.52
2018-02-24T20:43:46.160Z,52.40
2018-02-24T20:46:18.984Z,52.57
2018-02-24T20:48:48.825Z,52.85
2018-02-24T20:51:19.468Z,52.67
2018-02-24T20:53:49.576Z,52.45
2018-02-24T20:56:20.153Z,52.68
2018-02-24T20:58:50.430Z,52.61
2018-02-24T21:01:22.057Z,52.48
2018-02-24T21:03:53.616Z,52.86
2018-02-24T21:06:25.417Z,53.04
2018-02-24T21:08:55.040Z,53.17
2018-02-24T21:11:24.788Z,52.90
2018-02-24T21:13:57.002Z,52.59
2018-02-24T21:16:26.447Z,52.27
2018-02-24T21:18:56.215Z,52.37
2018-02-24T21:21:28.526Z,52.44
2018-02-24T21:24:00.505Z,52.65
2018-02-24T21:26:32.958Z,52.44
2018-02-24T21:29:02.263Z,52.30
2018-02-24T21:31:31.668Z,52.31
2018-02-24T21:34:01.223Z,52.25
2018-02-24T21:36:36.188Z,52.29
2018-02-24T21:39:07.647Z,52.27
2018-02-24T21:41:36.957Z,52.38
2018-02-24T21:44:06.926Z,52.24
2018-02-24T21:46:39.614Z,52.23
2018-02-24T21:49:14.548Z,52.10
2018-02-24T21:51:44.126Z,52.08
2018-02-24T21:54:17.458Z,52.15
2018-02-24T21:56:46.580Z,52.26
2018-02-24T21:59:15.782Z,52.52
2018-02-24T22:01:44.982Z,52.57
2018-02-24T22:04:14.486Z,52.59
2018-02-24T22:06:46.770Z,52.82
2018-02-24T22:09:18.342Z,52.71
2018-02-24T22:11:56.728Z,52.85
2018-02-24T22:14:26.065Z,52.86
2018-02-24T22:16:56.070Z,53.17
2018-02-24T22:19:25.285Z,53.10
2018-02-24T22:21:57.212Z,53.18
2018-02-24T22:24:26.304Z,53.21
2018-02-24T22:26:56.701Z,53.25
2018-02-24T22:29:26.009Z,53.43
2018-02-24T22:31:56.256Z,53.70
2018-02-24T22:34:27.474Z,53.71
2018-02-24T22:36:56.608Z,53.78
2018-02-24T22:39:28.485Z,53.83
2018-02-24T22:41:57.699Z,54.13
2018-02-24T22:44:27.237Z,54.25
2018-02-24T22:46:59.218Z,54.26
2018-02-24T22:49:30.928Z,54.29
2018-02-24T22:52:06.094Z,54.28
2018-02-24T22:54:35.239Z,54.07
2018-02-24T22:57:04.955Z,54.16
2018-02-24T22:59:35.995Z,53.96
2018-02-24T23:02:05.436Z,54.21
2018-02-24T23:04:35.832Z,53.98
2018-02-24T23:07:05.328Z,53.95
2018-02-24T23:09:36.463Z,54.10
2018-02-24T23:12:09.484Z,54.11
2018-02-24T23:14:39.131Z,54.17
2018-02-24T23:17:10.427Z,54.58
2018-02-24T23:19:42.230Z,54.47
2018-02-24T23:22:11.994Z,54.61
2018-02-24T23:24:43.856Z,55.95
2018-02-24T23:27:16.640Z,56.02
2018-02-24T23:29:47.295Z,56.03
2018-02-24T23:32:19.183Z,55.43
2018-02-24T23:34:48.704Z,54.31
2018-02-24T23:37:19.557Z,53.83
2018-02-24T23:39:51.116Z,54.73
2018-02-24T23:42:20.654Z,54.38
2018-02-24T23:44:51.668Z,53.11
2018-02-24T23:47:24.618Z,52.07
2018-02-24T23:49:59.975Z,52.45
2018-02-24T23:52:29.132Z,52.37
2018-02-24T23:54:58.808Z,51.96
2018-02-24T23:57:29.556Z,51.91
2018-02-24T23:59:59.410Z,51.84
